Home > Products > Valid Products > MTR

000
SAUS46 KPQR 020254
MTRREO
METAR KREO 020252Z AUTO 06005KT 01/M06 A2996 RMK AO1 SLP173
T00061056 56013





000
SAUS46 KPQR 020153
MTRREO
METAR KREO 020152Z AUTO 02006KT 03/M07 A2997 RMK AO1 SLP170
T00331067





000
SAUS46 KPQR 020153
MTRREO
METAR KREO 020152Z AUTO 02006KT 03/M07 A2997 RMK AO1 SLP170
T00331067





000
SAUS46 KPQR 020053
MTRREO
METAR KREO 020052Z AUTO VRB04KT 07/M08 A2998 RMK AO1 SLP173
T00721078





000
SAUS46 KPQR 020053
MTRREO
METAR KREO 020052Z AUTO VRB04KT 07/M08 A2998 RMK AO1 SLP173
T00721078





000
SAUS46 KPQR 012353
MTRREO
METAR KREO 012352Z AUTO VRB06KT 08/M07 A3000 RMK AO1 SLP178
T00781072 10078 20006 56024





000
SAUS46 KPQR 012353
MTRREO
METAR KREO 012352Z AUTO VRB06KT 08/M07 A3000 RMK AO1 SLP178
T00781072 10078 20006 56024





000
SAUS46 KPQR 012253
MTRREO
METAR KREO 012252Z AUTO 05005KT 07/M07 A3003 RMK AO1 SLP184
T00671067





000
SAUS46 KPQR 012253
MTRREO
METAR KREO 012252Z AUTO 05005KT 07/M07 A3003 RMK AO1 SLP184
T00671067





000
SAUS46 KPQR 012153
MTRREO
METAR KREO 012152Z AUTO VRB05KT 06/M06 A3005 RMK AO1 SLP194
T00611061





000
SAUS46 KPQR 012153
MTRREO
METAR KREO 012152Z AUTO VRB05KT 06/M06 A3005 RMK AO1 SLP194
T00611061





000
SAUS46 KPQR 012053
MTRREO
METAR KREO 012052Z AUTO 00000KT 04/M06 A3008 RMK AO1 SLP207
T00441061





000
SAUS46 KPQR 011953
MTRREO
METAR KREO 011952Z AUTO VRB03KT 04/M07 A3012 RMK AO1 SLP218
T00391072





000
SAUS46 KPQR 011854
MTRREO
METAR KREO 011852Z AUTO 00000KT 02/M08 A3014 RMK AO1 SLP228
T00221078 $





000
SAUS46 KPQR 011854
MTRREO
METAR KREO 011852Z AUTO 00000KT 02/M08 A3014 RMK AO1 SLP228
T00221078 $





000
SAUS46 KPQR 011753
MTRREO
METAR KREO 011752Z AUTO 04004KT 01/M08 A3014 RMK AO1 SLP230
T00061083 10006 21078 50003





000
SAUS46 KPQR 011753
MTRREO
METAR KREO 011752Z AUTO 04004KT 01/M08 A3014 RMK AO1 SLP230
T00061083 10006 21078 50003





000
SAUS46 KPQR 011653
MTRREO
METAR KREO 011652Z AUTO 02003KT M01/M08 A3015 RMK AO1 SLP233
T10061083





000
SAUS46 KPQR 011653
MTRREO
METAR KREO 011652Z AUTO 02003KT M01/M08 A3015 RMK AO1 SLP233
T10061083





000
SAUS46 KPQR 011553
MTRREO
METAR KREO 011552Z AUTO 05004KT M03/M08 A3015 RMK AO1 SLP233
T10281078





000
SAUS46 KPQR 011553
MTRREO
METAR KREO 011552Z AUTO 05004KT M03/M08 A3015 RMK AO1 SLP233
T10281078





000
SAUS46 KPQR 011453
MTRREO
METAR KREO 011452Z AUTO 07006KT M06/M09 A3013 RMK AO1 SLP233
T10561089 53013





000
SAUS46 KPQR 011453
MTRREO
METAR KREO 011452Z AUTO 07006KT M06/M09 A3013 RMK AO1 SLP233
T10561089 53013





000
SAUS46 KPQR 011353
MTRREO
METAR KREO 011352Z AUTO 00000KT M05/M09 A3012 RMK AO1 SLP224
T10501094





000
SAUS46 KPQR 011258
MTRREO
METAR KREO 011252Z AUTO 13005KT M07/M10 A3010 RMK AO1 SLP221
T10721100





000
SAUS46 KPQR 011258
MTRREO
METAR KREO 011252Z AUTO 13005KT M07/M10 A3010 RMK AO1 SLP221
T10721100





000
SAUS46 KPQR 011153
MTRREO
METAR KREO 011152Z AUTO 07003KT M06/M09 A3009 RMK AO1 SLP213
T10561094 11006 21067 51007





000
SAUS46 KPQR 011054
MTRREO
METAR KREO 011052Z AUTO 02004KT M04/M08 A3008 RMK AO1 SLP209
T10391083





000
SAUS46 KPQR 010953
MTRREO
METAR KREO 010952Z AUTO 05004KT M04/M08 A3008 RMK AO1 SLP209
T10391078





000
SAUS46 KPQR 010953
MTRREO
METAR KREO 010952Z AUTO 05004KT M04/M08 A3008 RMK AO1 SLP209
T10391078





000
SAUS46 KPQR 010853
MTRREO
METAR KREO 010852Z AUTO 04005KT M04/M07 A3007 RMK AO1 SLP202
T10391072





000
SAUS46 KPQR 010853
MTRREO
METAR KREO 010852Z AUTO 04005KT M04/M07 A3007 RMK AO1 SLP202
T10391072





000
SAUS46 KPQR 010753
MTRREO
METAR KREO 010752Z AUTO VRB04KT M02/M07 A3005 RMK AO1 SLP195
T10221067 400561022





000
SAUS46 KPQR 010753
MTRREO
METAR KREO 010752Z AUTO VRB04KT M02/M07 A3005 RMK AO1 SLP195
T10221067 400561022





000
SAUS46 KPQR 010653
MTRREO
METAR KREO 010652Z AUTO 08003KT M02/M06 A3004 RMK AO1 SLP190
T10171056





000
SAUS46 KPQR 010653
MTRREO
METAR KREO 010652Z AUTO 08003KT M02/M06 A3004 RMK AO1 SLP190
T10171056





000
SAUS46 KPQR 010553
MTRREO
METAR KREO 010552Z AUTO 03008KT M01/M04 A3002 RMK AO1 SLP184
T10061044 10039 21006 53025





000
SAUS46 KPQR 010553
MTRREO
METAR KREO 010552Z AUTO 03008KT M01/M04 A3002 RMK AO1 SLP184
T10061044 10039 21006 53025





000
SAUS46 KPQR 010453
MTRREO
METAR KREO 010452Z AUTO 02005KT 01/M04 A2999 RMK AO1 SLP174
T00061039





000
SAUS46 KPQR 010453
MTRREO
METAR KREO 010452Z AUTO 02005KT 01/M04 A2999 RMK AO1 SLP174
T00061039





000
SAUS46 KPQR 010353
MTRREO
METAR KREO 010352Z AUTO 35009KT 02/M03 A2995 RMK AO1 SLP160
T00171033





000
SAUS46 KPQR 010353
MTRREO
METAR KREO 010352Z AUTO 35009KT 02/M03 A2995 RMK AO1 SLP160
T00171033





000
SAUS46 KPQR 010254
MTRREO
METAR KREO 010252Z AUTO 34005KT 01/M03 A2993 RMK AO1 SLP152
T00111033 53022





000
SAUS46 KPQR 010254
MTRREO
METAR KREO 010252Z AUTO 34005KT 01/M03 A2993 RMK AO1 SLP152
T00111033 53022





000
SAUS46 KPQR 010153
MTRREO
METAR KREO 010152Z AUTO 36008KT 03/M03 A2990 RMK AO1 SLP141
T00281028





000
SAUS46 KPQR 010053
MTRREO
METAR KREO 010052Z AUTO 36012KT 04/M02 A2988 RMK AO1 SLP131
T00391022





000
SAUS46 KPQR 010053
MTRREO
METAR KREO 010052Z AUTO 36012KT 04/M02 A2988 RMK AO1 SLP131
T00391022





000
SAUS46 KPQR 282353
MTRREO
METAR KREO 282352Z AUTO 35015KT 04/M02 A2986 RMK AO1 SLP124
T00391022 10056 20017 53017





000
SAUS46 KPQR 282353
MTRREO
METAR KREO 282352Z AUTO 35015KT 04/M02 A2986 RMK AO1 SLP124
T00391022 10056 20017 53017





000
SAUS46 KPQR 282253
MTRREO
METAR KREO 282252Z AUTO 35013G20KT 04/M01 A2984 RMK AO1 SLP117
T00391011





000
SAUS46 KPQR 282253
MTRREO
METAR KREO 282252Z AUTO 35013G20KT 04/M01 A2984 RMK AO1 SLP117
T00391011





000
SAUS46 KPQR 282153
MTRREO
METAR KREO 282152Z AUTO 35013KT 04/M01 A2981 RMK AO1 SLP108
T00391011





000
SAUS46 KPQR 282153
MTRREO
METAR KREO 282152Z AUTO 35013KT 04/M01 A2981 RMK AO1 SLP108
T00391011





000
SAUS46 KPQR 282053
MTRREO
METAR KREO 282052Z AUTO 02012G17KT 04/M02 A2980 RMK AO1 SLP106
T00441017 53013





000
SAUS46 KPQR 282053
MTRREO
METAR KREO 282052Z AUTO 02012G17KT 04/M02 A2980 RMK AO1 SLP106
T00441017 53013





000
SAUS46 KPQR 281953
MTRREO
METAR KREO 281952Z AUTO 05010KT 03/M01 A2979 RMK AO1 WSHFT 1922
SLP103 T00331006





000
SAUS46 KPQR 281953
MTRREO
METAR KREO 281952Z AUTO 05010KT 03/M01 A2979 RMK AO1 WSHFT 1922
SLP103 T00331006





000
SAUS46 KPQR 281942
MTRREO
SPECI KREO 281939Z AUTO 06013KT 03/00 A2978 RMK AO1 WSHFT 1922
T00330000





000
SAUS46 KPQR 281942
MTRREO
SPECI KREO 281939Z AUTO 06013KT 03/00 A2978 RMK AO1 WSHFT 1922
T00330000





000
SAUS46 KPQR 281853
MTRREO
METAR KREO 281852Z AUTO 36012KT 04/00 A2977 RMK AO1 SLP094 T00390000





000
SAUS46 KPQR 281853
MTRREO
METAR KREO 281852Z AUTO 36012KT 04/00 A2977 RMK AO1 SLP094 T00390000





000
SAUS46 KPQR 281753
MTRREO
METAR KREO 281752Z AUTO 32007KT 02/M01 A2976 RMK AO1 SLP092
T00171006 10017 21006 51020





000
SAUS46 KPQR 281753
MTRREO
METAR KREO 281752Z AUTO 32007KT 02/M01 A2976 RMK AO1 SLP092
T00171006 10017 21006 51020





000
SAUS46 KPQR 281653
MTRREO
METAR KREO 281652Z AUTO 31004KT 01/M01 A2974 RMK AO1 SLP087
T00061006





000
SAUS46 KPQR 281653
MTRREO
METAR KREO 281652Z AUTO 31004KT 01/M01 A2974 RMK AO1 SLP087
T00061006





000
SAUS46 KPQR 281553
MTRREO
METAR KREO 281552Z AUTO 35007KT 01/M01 A2972 RMK AO1 SLP080
T00061011





000
SAUS46 KPQR 281453
MTRREO
METAR KREO 281452Z AUTO 36004KT 01/M02 A2969 RMK AO1 SLP068
T00061017 53014





000
SAUS46 KPQR 281453
MTRREO
METAR KREO 281452Z AUTO 36004KT 01/M02 A2969 RMK AO1 SLP068
T00061017 53014





000
SAUS46 KPQR 281353
MTRREO
METAR KREO 281352Z AUTO 05003KT M01/M02 A2967 RMK AO1 SLP061
T10061022





000
SAUS46 KPQR 281353
MTRREO
METAR KREO 281352Z AUTO 05003KT M01/M02 A2967 RMK AO1 SLP061
T10061022





000
SAUS46 KPQR 281258
MTRREO
METAR KREO 281252Z AUTO 19003KT 01/M01 A2966 RMK AO1 SLP053
T00061011





000
SAUS46 KPQR 281258
MTRREO
METAR KREO 281252Z AUTO 19003KT 01/M01 A2966 RMK AO1 SLP053
T00061011





000
SAUS46 KPQR 281153
MTRREO
METAR KREO 281152Z AUTO 18003KT 01/M01 A2964 RMK AO1 SLP047 70022
T00061011 10006 21011 51006





000
SAUS46 KPQR 281153
MTRREO
METAR KREO 281152Z AUTO 18003KT 01/M01 A2964 RMK AO1 SLP047 70022
T00061011 10006 21011 51006





000
SAUS46 KPQR 281053
MTRREO
METAR KREO 281052Z AUTO 00000KT 01/M01 A2963 RMK AO1 SLP045
T00061011





000
SAUS46 KPQR 281053
MTRREO
METAR KREO 281052Z AUTO 00000KT 01/M01 A2963 RMK AO1 SLP045
T00061011





000
SAUS46 KPQR 280953
MTRREO
METAR KREO 280952Z AUTO 00000KT 00/M02 A2963 RMK AO1 SLP047
T00001017





000
SAUS46 KPQR 280853
MTRREO
METAR KREO 280852Z AUTO 00000KT M01/M02 A2962 RMK AO1 SLP043
T10111022 50000





000
SAUS46 KPQR 280753
MTRREO
METAR KREO 280752Z AUTO 19004KT M01/M02 A2962 RMK AO1 SLP044
T10061022 400441011





000
SAUS46 KPQR 280653
MTRREO
METAR KREO 280652Z AUTO 19003KT M01/M02 A2962 RMK AO1 SLP047
T10111022





000
SAUS46 KPQR 280653
MTRREO
METAR KREO 280652Z AUTO 19003KT M01/M02 A2962 RMK AO1 SLP047
T10111022





000
SAUS46 KPQR 280553
MTRREO
METAR KREO 280552Z AUTO 16003KT 00/M02 A2962 RMK AO1 SLP044 60001
T00001022 10044 21006 50001





000
SAUS46 KPQR 280553
MTRREO
METAR KREO 280552Z AUTO 16003KT 00/M02 A2962 RMK AO1 SLP044 60001
T00001022 10044 21006 50001





000
SAUS46 KPQR 280453
MTRREO
METAR KREO 280452Z AUTO 18003KT 01/M01 A2962 RMK AO1 SLP044
T00111011





000
SAUS46 KPQR 280453
MTRREO
METAR KREO 280452Z AUTO 18003KT 01/M01 A2962 RMK AO1 SLP044
T00111011





000
SAUS46 KPQR 280353
MTRREO
METAR KREO 280352Z AUTO 16005KT 00/M02 A2962 RMK AO1 SLP041
T00001017





000
SAUS46 KPQR 280353
MTRREO
METAR KREO 280352Z AUTO 16005KT 00/M02 A2962 RMK AO1 SLP041
T00001017





000
SAUS46 KPQR 280253
MTRREO
METAR KREO 280252Z AUTO 00000KT 02/00 A2962 RMK AO1 SLP042 60001
T00220000 53001





000
SAUS46 KPQR 280253
MTRREO
METAR KREO 280252Z AUTO 00000KT 02/00 A2962 RMK AO1 SLP042 60001
T00220000 53001





000
SAUS46 KPQR 280153
MTRREO
METAR KREO 280152Z AUTO 00000KT 03/01 A2961 RMK AO1 SLP039 T00330006





000
SAUS46 KPQR 280153
MTRREO
METAR KREO 280152Z AUTO 00000KT 03/01 A2961 RMK AO1 SLP039 T00330006





000
SAUS46 KPQR 280053
MTRREO
METAR KREO 280052Z AUTO 00000KT 04/01 A2961 RMK AO1 SLP036 P0001
T00440006





000
SAUS46 KPQR 280053
MTRREO
METAR KREO 280052Z AUTO 00000KT 04/01 A2961 RMK AO1 SLP036 P0001
T00440006





000
SAUS46 KPQR 272353
MTRREO
METAR KREO 272352Z AUTO 32005KT 04/01 A2961 RMK AO1 SLP037 60016
T00440011 10044 20011 56009





000
SAUS46 KPQR 272353
MTRREO
METAR KREO 272352Z AUTO 32005KT 04/01 A2961 RMK AO1 SLP037 60016
T00440011 10044 20011 56009





000
SAUS46 KPQR 272253
MTRREO
METAR KREO 272252Z AUTO 33003KT 04/01 A2962 RMK AO1 SLP038 T00440011





000
SAUS46 KPQR 272253
MTRREO
METAR KREO 272252Z AUTO 33003KT 04/01 A2962 RMK AO1 SLP038 T00440011





000
SAUS46 KPQR 272153
MTRREO
METAR KREO 272152Z AUTO 33004KT 03/01 A2963 RMK AO1 SLP043 P0001
T00330011





000
SAUS46 KPQR 272054
MTRREO
METAR KREO 272052Z AUTO 28003KT 04/01 A2964 RMK AO1 SLP048 P0005
60015 T00390011 58021





000
SAUS46 KPQR 271953
MTRREO
METAR KREO 271952Z AUTO 14005KT 04/01 A2967 RMK AO1 SLP057 P0003
T00390011





000
SAUS46 KPQR 271953
MTRREO
METAR KREO 271952Z AUTO 14005KT 04/01 A2967 RMK AO1 SLP057 P0003
T00390011





000
SAUS46 KPQR 271853
MTRREO
METAR KREO 271852Z AUTO 14009KT 02/01 A2969 RMK AO1 SLP070 P0007
T00220006





000
SAUS46 KPQR 271853
MTRREO
METAR KREO 271852Z AUTO 14009KT 02/01 A2969 RMK AO1 SLP070 P0007
T00220006





000
SAUS46 KPQR 271753
MTRREO
METAR KREO 271752Z AUTO 00000KT 02/00 A2971 RMK AO1 SLP076 P0004
60005 T00170000 10028 20006 56005





000
SAUS46 KPQR 271753
MTRREO
METAR KREO 271752Z AUTO 00000KT 02/00 A2971 RMK AO1 SLP076 P0004
60005 T00170000 10028 20006 56005





000
SAUS46 KPQR 271653
MTRREO
METAR KREO 271652Z AUTO 00000KT 02/M01 A2972 RMK AO1 SLP074 P0001
T00221006





000
SAUS46 KPQR 271653
MTRREO
METAR KREO 271652Z AUTO 00000KT 02/M01 A2972 RMK AO1 SLP074 P0001
T00221006





000
SAUS46 KPQR 271553
MTRREO
METAR KREO 271552Z AUTO 13004KT 03/M01 A2972 RMK AO1 SLP072
T00281006





000
SAUS46 KPQR 271553
MTRREO
METAR KREO 271552Z AUTO 13004KT 03/M01 A2972 RMK AO1 SLP072
T00281006





000
SAUS46 KPQR 271453
MTRREO
METAR KREO 271452Z AUTO 13005KT 01/M01 A2973 RMK AO1 SLP076
T00111011 56012





000
SAUS46 KPQR 271453
MTRREO
METAR KREO 271452Z AUTO 13005KT 01/M01 A2973 RMK AO1 SLP076
T00111011 56012





000
SAUS46 KPQR 271353
MTRREO
METAR KREO 271352Z AUTO VRB03KT 01/M02 A2974 RMK AO1 SLP078
T00111017





000
SAUS46 KPQR 271353
MTRREO
METAR KREO 271352Z AUTO VRB03KT 01/M02 A2974 RMK AO1 SLP078
T00111017





000
SAUS46 KPQR 271258
MTRREO
METAR KREO 271252Z AUTO 13008KT 01/M01 A2975 RMK AO1 SLP080
T00111011





000
SAUS46 KPQR 271153
MTRREO
METAR KREO 271152Z AUTO 14007KT 01/M01 A2977 RMK AO1 SLP086 60002
70002 T00111011 10017 21006





000
SAUS46 KPQR 271054
MTRREO
METAR KREO 271052Z AUTO 17009KT 02/00 A2979 RMK AO1 SLP091 T00170000





000
SAUS46 KPQR 270953
MTRREO
METAR KREO 270952Z AUTO 15008KT 02/M01 A2982 RMK AO1 SLP103
T00171006





000
SAUS46 KPQR 270853
MTRREO
METAR KREO 270852Z AUTO 17007KT 01/M01 A2985 RMK AO1 SLP111 P0001
60002 T00111006 58009





000
SAUS46 KPQR 270753
MTRREO
METAR KREO 270752Z AUTO 23005KT 01/M03 A2987 RMK AO1 SLP120 P0001
T00111028 401061006





000
SAUS46 KPQR 270653
MTRREO
METAR KREO 270652Z AUTO 14007KT 00/M04 A2987 RMK AO1 SLP121
T00001039





000
SAUS46 KPQR 270553
MTRREO
METAR KREO 270552Z AUTO 10004KT 01/M04 A2988 RMK AO1 SLP125
T00111039 10089 20011 58013





000
SAUS46 KPQR 270453
MTRREO
METAR KREO 270452Z AUTO 08004KT 03/M03 A2989 RMK AO1 SLP131
T00331033





000
SAUS46 KPQR 270353
MTRREO
METAR KREO 270352Z AUTO 00000KT 04/M03 A2991 RMK AO1 SLP137
T00441033





    US Dept of Commerce
    National Oceanic and Atmospheric Administration
    National Weather Service
    1325 East West Highway
    Silver Spring, MD 20910
    Page Author: NWS Internet Services Team
Disclaimer
Information Quality
Credits
Glossary
Privacy Policy
Freedom of Information Act (FOIA)
About Us
Career Opportunities